Time;durP1;ratioP1;P1;durP2;ratioP2;P2;SDS_P1;SDS_P2;PMS_P1;PMS_P2;Temp;Humidity;BMP_temperature;BMP_pressure;BME280_temperature;BME280_humidity;BME280_pressure;Samples;Min_cycle;Max_cycle;Signal;HPM_P1;HPM_P2
2022/08/29 00:00:34;;;;;;;2.63;1.13;;;16.60;94.70;;;;;;5064231;28;20891;-35
2022/08/29 00:03:00;;;;;;;1.75;1.30;;;16.60;94.70;;;;;;5064203;28;20471;-35
2022/08/29 00:05:29;;;;;;;3.30;1.38;;;16.60;94.80;;;;;;5064675;28;20024;-37
2022/08/29 00:07:55;;;;;;;2.25;1.38;;;16.60;94.80;;;;;;5064147;28;20046;-35
2022/08/29 00:10:21;;;;;;;2.17;1.30;;;16.60;94.80;;;;;;5063949;28;20025;-35
2022/08/29 00:12:47;;;;;;;1.55;1.15;;;16.60;94.80;;;;;;5063877;28;20025;-37
2022/08/29 00:15:13;;;;;;;2.17;1.30;;;16.50;94.80;;;;;;5063293;28;20036;-35
2022/08/29 00:17:40;;;;;;;2.22;1.20;;;16.50;94.80;;;;;;5057248;28;20017;-34
2022/08/29 00:20:09;;;;;;;3.00;1.30;;;16.50;94.80;;;;;;5061163;28;20569;-35
2022/08/29 00:22:34;;;;;;;3.03;1.30;;;16.40;94.80;;;;;;5063930;28;20440;-36
2022/08/29 00:25:03;;;;;;;3.58;1.38;;;16.40;94.80;;;;;;5063145;28;20024;-34
2022/08/29 00:27:29;;;;;;;2.53;1.35;;;16.40;94.90;;;;;;5064186;28;20024;-35
2022/08/29 00:29:55;;;;;;;2.38;1.40;;;16.30;94.90;;;;;;5063892;28;20347;-34
2022/08/29 00:32:20;;;;;;;3.08;1.50;;;16.30;95.00;;;;;;5063723;28;20028;-36
2022/08/29 00:34:46;;;;;;;1.92;1.20;;;16.30;95.00;;;;;;5063655;28;20025;-34
2022/08/29 00:37:12;;;;;;;4.10;1.60;;;16.20;95.10;;;;;;5064583;28;20110;-35
2022/08/29 00:39:38;;;;;;;3.05;1.40;;;16.20;95.10;;;;;;5063522;28;20016;-35
2022/08/29 00:42:03;;;;;;;3.15;1.30;;;16.20;95.40;;;;;;5063792;28;20032;-35
2022/08/29 00:44:29;;;;;;;3.92;1.35;;;16.20;95.20;;;;;;5066318;28;20021;-35
2022/08/29 00:46:57;;;;;;;2.53;1.38;;;16.20;95.30;;;;;;5067043;28;20498;-35
2022/08/29 00:49:40;;;;;;;1.92;1.20;;;16.10;95.30;;;;;;5068312;28;20036;-35
2022/08/29 00:52:12;;;;;;;2.50;1.10;;;16.20;95.40;;;;;;5067354;28;20052;-39
2022/08/29 00:54:39;;;;;;;;;;;16.10;95.40;;;;;;5067566;28;20453;-36
2022/08/29 00:57:06;;;;;;;2.08;1.13;;;16.10;95.30;;;;;;5067494;28;19919;-35
2022/08/29 00:59:36;;;;;;;3.67;1.70;;;16.10;95.30;;;;;;5066518;28;20035;-36
2022/08/29 01:02:03;;;;;;;2.00;1.27;;;16.10;95.40;;;;;;5064164;28;20450;-35
2022/08/29 01:04:30;;;;;;;2.58;1.52;;;16.10;95.50;;;;;;5067758;28;20029;-35
2022/08/29 01:06:56;;;;;;;2.08;1.20;;;16.10;95.50;;;;;;5066530;28;20025;-36
2022/08/29 01:09:23;;;;;;;1.95;1.30;;;16.10;95.50;;;;;;5068383;28;20028;-36
2022/08/29 01:14:34;;;;;;;3.92;1.40;;;16.00;95.50;;;;;;5066785;28;20063;-35
2022/08/29 01:17:02;;;;;;;4.60;1.30;;;16.00;95.60;;;;;;5067505;28;20037;-35
2022/08/29 01:20:09;;;;;;;2.17;1.23;;;16.00;95.60;;;;;;5067191;28;20116;-36
2022/08/29 01:22:44;;;;;;;2.78;1.30;;;16.00;95.70;;;;;;5067414;28;20033;-35
2022/08/29 01:25:15;;;;;;;2.65;1.30;;;15.90;95.70;;;;;;5068258;28;20487;-34
2022/08/29 01:27:45;;;;;;;3.30;1.27;;;15.90;95.70;;;;;;5066221;28;20019;-34
2022/08/29 01:30:11;;;;;;;3.20;1.48;;;15.90;95.70;;;;;;5067139;28;20365;-36
2022/08/29 01:32:40;;;;;;;3.20;0.93;;;15.90;95.70;;;;;;5066514;28;20031;-35
2022/08/29 01:35:07;;;;;;;2.50;1.17;;;15.90;95.80;;;;;;5066093;28;20456;-34
2022/08/29 01:37:34;;;;;;;1.80;1.13;;;15.80;95.80;;;;;;5066330;28;20162;-36
2022/08/29 01:40:00;;;;;;;3.15;1.63;;;15.80;95.80;;;;;;5066661;28;20914;-36
2022/08/29 01:42:25;;;;;;;4.10;1.30;;;15.70;95.90;;;;;;5065207;28;20115;-35
2022/08/29 01:44:54;;;;;;;3.00;1.42;;;15.80;96.00;;;;;;5066792;28;20502;-35
2022/08/29 01:47:23;;;;;;;0.93;0.90;;;15.70;96.00;;;;;;5067056;28;20260;-35
2022/08/29 01:49:48;;;;;;;1.73;1.00;;;15.70;96.00;;;;;;5066129;28;20384;-34
2022/08/29 01:52:14;;;;;;;1.40;1.20;;;15.70;96.00;;;;;;5066558;28;20027;-35
2022/08/29 01:54:41;;;;;;;2.63;1.50;;;15.60;96.00;;;;;;5065604;28;20055;-34
2022/08/29 01:57:07;;;;;;;2.35;1.33;;;15.60;96.10;;;;;;5065371;28;20027;-35
2022/08/29 01:59:33;;;;;;;2.10;1.30;;;15.60;96.10;;;;;;5067257;28;20024;-34
2022/08/29 02:02:04;;;;;;;2.25;1.35;;;15.50;96.20;;;;;;5066676;28;20433;-35
2022/08/29 02:04:31;;;;;;;3.13;1.40;;;15.50;96.20;;;;;;5066365;28;20028;-34
2022/08/29 02:06:57;;;;;;;3.35;1.67;;;15.50;96.30;;;;;;5065871;28;20150;-36
2022/08/29 02:09:24;;;;;;;3.33;1.40;;;15.50;96.30;;;;;;5066119;28;20032;-34
2022/08/29 02:11:49;;;;;;;3.22;1.38;;;15.50;96.40;;;;;;5065934;28;20029;-35
2022/08/29 02:14:15;;;;;;;1.80;1.20;;;15.40;96.40;;;;;;5065833;28;20021;-37
2022/08/29 02:16:41;;;;;;;3.35;1.50;;;15.40;96.40;;;;;;5065676;28;20040;-37
2022/08/29 02:19:06;;;;;;;2.15;1.50;;;15.40;96.50;;;;;;5065997;28;20115;-35
2022/08/29 02:21:32;;;;;;;5.88;1.50;;;15.40;96.50;;;;;;5066733;28;20105;-36
2022/08/29 02:24:00;;;;;;;3.58;1.40;;;15.40;96.50;;;;;;5065789;28;20024;-35
2022/08/29 02:26:26;;;;;;;3.13;1.75;;;15.30;96.50;;;;;;5065568;28;20119;-35
2022/08/29 02:28:52;;;;;;;3.47;1.88;;;15.40;96.60;;;;;;5065463;28;20442;-36
2022/08/29 02:31:19;;;;;;;3.38;1.55;;;15.30;96.60;;;;;;5065677;28;20070;-33
2022/08/29 02:33:45;;;;;;;2.78;1.75;;;15.30;96.60;;;;;;5065442;28;20021;-35
2022/08/29 02:36:11;;;;;;;4.10;1.70;;;15.30;96.60;;;;;;5066389;28;20060;-35
2022/08/29 02:38:38;;;;;;;3.05;1.95;;;15.30;96.60;;;;;;5064798;28;20081;-36
2022/08/29 02:41:04;;;;;;;3.33;2.10;;;15.30;96.60;;;;;;5066166;28;20392;-35
2022/08/29 02:43:29;;;;;;;4.15;1.98;;;15.30;96.60;;;;;;5065536;28;20025;-35
2022/08/29 02:45:55;;;;;;;3.28;1.85;;;15.30;96.70;;;;;;5064927;28;20065;-34
2022/08/29 02:48:20;;;;;;;4.68;2.00;;;15.30;96.80;;;;;;5066057;28;20081;-35
2022/08/29 02:50:49;;;;;;;3.03;2.10;;;15.30;96.90;;;;;;5065015;28;20487;-35
2022/08/29 02:53:17;;;;;;;4.93;2.30;;;15.30;97.00;;;;;;5064427;28;20119;-35
2022/08/29 02:55:43;;;;;;;3.38;2.10;;;15.30;97.00;;;;;;5064266;28;20472;-36
2022/08/29 02:58:08;;;;;;;5.38;2.67;;;15.20;97.10;;;;;;5066084;28;20345;-36
2022/08/29 03:00:35;;;;;;;3.22;2.00;;;15.20;97.10;;;;;;5064698;28;20123;-35
2022/08/29 03:03:00;;;;;;;3.15;2.20;;;15.20;97.10;;;;;;5065813;28;20020;-35
2022/08/29 03:05:29;;;;;;;4.25;2.40;;;15.20;97.10;;;;;;5064041;28;20040;-36
2022/08/29 03:07:56;;;;;;;4.30;2.70;;;15.20;97.20;;;;;;5065238;28;20035;-35
2022/08/29 03:10:22;;;;;;;4.63;2.60;;;15.20;97.10;;;;;;5065557;28;20025;-35
2022/08/29 03:12:48;;;;;;;3.67;2.35;;;15.10;97.00;;;;;;5063941;28;20027;-35
2022/08/29 03:15:14;;;;;;;3.28;2.17;;;15.20;96.90;;;;;;5065104;28;20185;-36
2022/08/29 03:17:40;;;;;;;3.60;2.55;;;15.10;96.80;;;;;;5065274;28;20401;-35
2022/08/29 03:20:08;;;;;;;4.57;2.53;;;15.10;96.80;;;;;;5063786;28;20020;-35
2022/08/29 03:22:35;;;;;;;5.47;2.47;;;15.10;96.70;;;;;;5065345;28;20052;-36
2022/08/29 03:25:02;;;;;;;6.10;2.55;;;15.10;96.60;;;;;;5064998;28;20108;-35
2022/08/29 03:27:29;;;;;;;4.05;2.47;;;15.00;96.60;;;;;;5064365;28;20040;-34
2022/08/29 03:29:55;;;;;;;4.63;2.50;;;15.10;96.60;;;;;;5064758;28;20063;-37
2022/08/29 03:32:20;;;;;;;5.05;2.20;;;15.00;96.50;;;;;;5065232;28;20119;-35
2022/08/29 03:34:46;;;;;;;3.97;2.45;;;15.00;96.50;;;;;;5063892;28;20431;-35
2022/08/29 03:37:11;;;;;;;3.20;2.33;;;14.90;96.50;;;;;;5064905;28;20531;-35
2022/08/29 03:39:37;;;;;;;3.63;2.50;;;14.90;96.50;;;;;;5064468;28;20023;-37
2022/08/29 03:42:04;;;;;;;3.45;2.20;;;14.90;96.50;;;;;;5063503;28;20388;-35
2022/08/29 03:44:40;;;;;;;4.00;2.50;;;14.80;96.50;;;;;;5064175;28;20111;-35
2022/08/29 03:47:08;;;;;;;5.65;2.50;;;14.80;96.60;;;;;;5064211;28;20064;-34
2022/08/29 03:49:34;;;;;;;6.03;2.60;;;14.80;96.70;;;;;;5063463;28;20025;-34
2022/08/29 03:52:00;;;;;;;4.00;2.40;;;14.70;96.70;;;;;;5064312;28;20043;-33
2022/08/29 03:54:26;;;;;;;3.53;2.20;;;14.60;96.70;;;;;;5064552;28;20044;-37
2022/08/29 03:56:52;;;;;;;5.72;3.00;;;14.60;96.80;;;;;;5063812;28;20047;-36
2022/08/29 03:59:19;;;;;;;4.00;2.22;;;14.60;96.80;;;;;;5065315;28;20028;-33
2022/08/29 04:01:47;;;;;;;3.80;2.60;;;14.60;96.90;;;;;;5063832;28;20760;-35
2022/08/29 04:07:00;;;;;;;6.05;2.40;;;14.60;96.90;;;;;;5064609;28;20086;-37
2022/08/29 04:09:27;;;;;;;3.28;2.08;;;14.70;96.90;;;;;;5063741;28;20413;-36
2022/08/29 04:11:55;;;;;;;3.25;2.40;;;14.70;96.90;;;;;;5063810;28;20033;-35
2022/08/29 04:14:21;;;;;;;3.55;2.17;;;14.70;96.90;;;;;;5064553;28;20052;-34
2022/08/29 04:16:50;;;;;;;5.00;2.45;;;14.70;97.00;;;;;;5062943;28;20112;-35
2022/08/29 04:19:17;;;;;;;3.05;1.98;;;14.70;97.00;;;;;;5063647;28;20392;-35
2022/08/29 04:21:43;;;;;;;3.97;2.63;;;14.70;97.00;;;;;;5063421;28;20109;-36
2022/08/29 04:24:09;;;;;;;4.15;2.58;;;14.70;97.10;;;;;;5063893;28;20012;-36
2022/08/29 04:26:35;;;;;;;4.32;2.42;;;14.70;97.10;;;;;;5063491;28;20043;-35
2022/08/29 04:29:00;;;;;;;3.63;2.20;;;14.70;97.20;;;;;;5063966;28;20531;-35
2022/08/29 04:31:26;;;;;;;3.15;2.22;;;14.70;97.20;;;;;;5064201;28;20033;-36
2022/08/29 04:33:52;;;;;;;3.58;1.92;;;14.80;97.20;;;;;;5063862;28;20103;-35
2022/08/29 04:36:17;;;;;;;4.13;2.33;;;14.80;97.10;;;;;;5064919;28;20072;-36
2022/08/29 04:38:43;;;;;;;3.95;2.50;;;14.80;97.20;;;;;;5063498;28;20040;-36
2022/08/29 04:41:13;;;;;;;3.72;1.92;;;14.80;97.20;;;;;;5064998;28;20063;-35
2022/08/29 04:43:40;;;;;;;4.28;2.55;;;14.80;97.20;;;;;;5064051;28;20036;-35
2022/08/29 04:46:06;;;;;;;4.88;2.38;;;14.80;97.30;;;;;;5063455;28;20031;-35
2022/08/29 04:48:31;;;;;;;4.40;2.63;;;14.80;97.30;;;;;;5063869;28;20017;-35
2022/08/29 04:50:59;;;;;;;4.57;2.45;;;14.80;97.30;;;;;;5063803;28;20326;-38
2022/08/29 04:53:26;;;;;;;6.53;2.72;;;14.90;97.30;;;;;;5063022;28;20400;-37
2022/08/29 04:56:05;;;;;;;5.15;2.38;;;14.90;97.20;;;;;;5063904;28;20375;-36
2022/08/29 04:58:32;;;;;;;3.90;2.60;;;15.00;97.20;;;;;;5063094;28;20028;-34
2022/08/29 05:00:58;;;;;;;4.60;2.53;;;15.00;97.10;;;;;;5064581;28;20507;-37
2022/08/29 05:03:23;;;;;;;4.78;2.50;;;15.00;97.10;;;;;;5064055;28;20047;-35
2022/08/29 05:06:07;;;;;;;4.85;2.53;;;15.10;97.00;;;;;;5063544;28;20057;-36
2022/08/29 05:08:37;;;;;;;3.28;2.35;;;15.10;97.00;;;;;;5064228;28;20072;-35
2022/08/29 05:11:05;;;;;;;4.28;2.60;;;15.20;96.90;;;;;;5064095;28;20017;-37
2022/08/29 05:13:31;;;;;;;3.33;2.30;;;15.30;96.90;;;;;;5063153;28;20069;-36
2022/08/29 05:15:57;;;;;;;5.07;2.53;;;15.30;96.80;;;;;;5064245;28;20039;-37
2022/08/29 05:18:22;;;;;;;4.30;2.50;;;15.30;96.80;;;;;;5064304;28;20028;-34
2022/08/29 05:20:48;;;;;;;4.72;2.70;;;15.40;96.80;;;;;;5062816;28;20420;-36
2022/08/29 05:23:15;;;;;;;5.07;2.70;;;15.40;96.70;;;;;;5064414;28;20058;-36
2022/08/29 05:25:42;;;;;;;3.65;2.17;;;15.50;96.70;;;;;;5062996;28;20025;-35
2022/08/29 05:28:10;;;;;;;6.28;2.67;;;15.50;96.60;;;;;;5064089;28;20082;-34
2022/08/29 05:30:37;;;;;;;3.25;2.30;;;15.50;96.50;;;;;;5064930;28;20037;-36
2022/08/29 05:33:04;;;;;;;3.22;1.92;;;15.50;96.40;;;;;;5067525;28;20447;-35
2022/08/29 05:35:30;;;;;;;2.75;2.10;;;15.50;96.40;;;;;;5066975;28;20089;-37
2022/08/29 05:37:55;;;;;;;3.42;2.58;;;15.60;96.40;;;;;;5074294;28;20024;-36
2022/08/29 05:40:21;;;;;;;5.50;2.60;;;15.60;96.30;;;;;;5072082;28;20630;-36
2022/08/29 05:42:46;;;;;;;5.13;3.20;;;15.50;96.20;;;;;;5066019;28;20173;-36
2022/08/29 05:45:12;;;;;;;4.53;2.60;;;15.50;96.20;;;;;;5063816;28;20031;-36
2022/08/29 05:47:38;;;;;;;2.78;2.40;;;15.50;96.20;;;;;;5065193;28;20024;-35
2022/08/29 05:50:05;;;;;;;5.95;3.05;;;15.40;96.20;;;;;;5065323;28;20126;-34
2022/08/29 05:52:31;;;;;;;6.65;3.05;;;15.40;96.30;;;;;;5065175;28;20043;-36
2022/08/29 05:54:57;;;;;;;5.13;2.85;;;15.30;96.40;;;;;;5064920;28;20372;-38
2022/08/29 05:57:22;;;;;;;4.63;2.45;;;15.30;96.60;;;;;;5067144;28;20123;-36
2022/08/29 05:59:50;;;;;;;6.15;2.85;;;15.30;96.60;;;;;;5065309;28;20025;-36
2022/08/29 06:02:17;;;;;;;3.65;2.28;;;15.30;96.60;;;;;;5065087;28;20048;-37
2022/08/29 06:04:43;;;;;;;5.13;2.50;;;15.20;96.60;;;;;;5065457;28;20031;-36
2022/08/29 06:07:09;;;;;;;4.72;2.92;;;15.30;96.70;;;;;;5066497;28;20338;-35
2022/08/29 06:09:37;;;;;;;6.95;3.00;;;15.40;96.60;;;;;;5065147;28;20150;-35
2022/08/29 06:12:04;;;;;;;3.65;2.60;;;15.40;96.60;;;;;;5064995;28;20056;-37
2022/08/29 06:14:30;;;;;;;4.70;2.60;;;15.50;96.60;;;;;;5065642;28;20060;-34
2022/08/29 06:16:56;;;;;;;5.22;2.40;;;15.50;96.50;;;;;;5064585;28;20119;-36
2022/08/29 06:19:21;;;;;;;4.43;2.88;;;15.60;96.50;;;;;;5065589;28;20048;-34
2022/08/29 06:21:47;;;;;;;4.20;2.60;;;15.70;96.50;;;;;;5064349;28;20044;-35
2022/08/29 06:24:13;;;;;;;5.22;3.05;;;15.70;96.40;;;;;;5064288;28;20034;-35
2022/08/29 06:26:39;;;;;;;4.55;2.47;;;15.90;96.30;;;;;;5065215;28;20134;-39
2022/08/29 06:29:08;;;;;;;4.55;2.30;;;16.00;96.20;;;;;;5065060;28;20514;-37
2022/08/29 06:31:34;;;;;;;3.95;2.28;;;16.00;96.10;;;;;;5064090;28;20029;-41
2022/08/29 06:34:03;;;;;;;3.65;2.40;;;16.10;96.00;;;;;;5064720;28;20017;-37
2022/08/29 06:36:29;;;;;;;4.95;2.50;;;16.30;96.00;;;;;;5064356;28;20032;-37
2022/08/29 06:38:56;;;;;;;3.15;2.38;;;16.40;95.90;;;;;;5065164;28;20025;-36
2022/08/29 06:41:23;;;;;;;3.58;2.47;;;16.50;95.80;;;;;;5064237;28;20028;-35
2022/08/29 06:43:49;;;;;;;5.45;2.55;;;16.50;95.70;;;;;;5064481;28;20299;-35
2022/08/29 06:46:25;;;;;;;3.85;2.60;;;16.60;95.60;;;;;;5066295;28;20127;-35
2022/08/29 06:48:51;;;;;;;5.00;2.40;;;16.60;95.60;;;;;;5065263;28;20033;-37
2022/08/29 06:51:16;;;;;;;3.10;2.40;;;16.70;95.50;;;;;;5064614;28;20036;-36
2022/08/29 06:53:42;;;;;;;2.63;2.15;;;16.70;95.50;;;;;;5064627;28;20048;-37
2022/08/29 06:56:08;;;;;;;7.63;2.80;;;16.80;95.50;;;;;;5065043;28;20072;-35
2022/08/29 06:58:34;;;;;;;4.43;2.60;;;16.90;95.20;;;;;;5064321;28;20479;-37
2022/08/29 07:01:06;;;;;;;4.43;2.72;;;16.90;95.30;;;;;;5065269;28;20482;-36
2022/08/29 07:03:31;;;;;;;5.45;2.75;;;17.00;95.30;;;;;;5065388;28;20020;-35
2022/08/29 07:05:57;;;;;;;3.33;2.50;;;17.10;95.20;;;;;;5064838;28;20371;-36
2022/08/29 07:08:22;;;;;;;3.20;2.50;;;17.10;95.10;;;;;;5065588;28;20036;-36
2022/08/29 07:10:48;;;;;;;6.78;3.22;;;17.20;95.00;;;;;;5064452;28;20399;-35
2022/08/29 07:13:14;;;;;;;5.55;2.88;;;17.20;94.80;;;;;;5064251;28;20025;-36
2022/08/29 07:15:40;;;;;;;3.25;2.42;;;17.20;94.90;;;;;;5064934;28;20536;-36
2022/08/29 07:18:05;;;;;;;4.60;2.70;;;17.20;94.90;;;;;;5064934;28;20024;-36
2022/08/29 07:20:31;;;;;;;5.07;2.75;;;17.30;94.90;;;;;;5064208;28;20422;-36
2022/08/29 07:22:56;;;;;;;3.95;2.53;;;17.40;94.70;;;;;;5064954;28;20242;-35
2022/08/29 07:25:23;;;;;;;4.65;2.92;;;17.40;94.70;;;;;;5064888;28;20028;-37
2022/08/29 07:27:50;;;;;;;5.43;2.38;;;17.50;94.60;;;;;;5064629;28;20024;-37
2022/08/29 07:30:16;;;;;;;3.70;2.78;;;17.50;94.70;;;;;;5065086;28;20194;-35
2022/08/29 07:32:44;;;;;;;3.03;2.33;;;17.50;94.70;;;;;;5063760;28;20026;-35
2022/08/29 07:35:12;;;;;;;3.75;2.55;;;17.60;94.60;;;;;;5064928;28;20042;-36
2022/08/29 07:37:38;;;;;;;5.38;2.63;;;17.70;94.50;;;;;;5064969;28;20024;-34
2022/08/29 07:40:05;;;;;;;3.67;2.10;;;17.80;94.50;;;;;;5063961;28;20047;-35
2022/08/29 07:42:32;;;;;;;4.22;2.20;;;17.80;94.70;;;;;;5064557;28;20041;-36
2022/08/29 07:44:58;;;;;;;3.92;2.33;;;18.00;94.30;;;;;;5064553;28;20020;-37
2022/08/29 07:47:25;;;;;;;2.58;2.15;;;18.00;94.20;;;;;;5063706;28;20032;-37
2022/08/29 07:49:51;;;;;;;3.25;1.92;;;18.00;94.10;;;;;;5064064;28;20024;-35
2022/08/29 07:52:17;;;;;;;5.72;2.15;;;18.10;94.10;;;;;;5063971;28;20513;-36
2022/08/29 07:54:42;;;;;;;3.58;2.17;;;18.10;94.10;;;;;;5062864;28;20024;-38
2022/08/29 07:57:08;;;;;;;4.20;2.35;;;18.10;94.00;;;;;;5063930;28;20043;-37
2022/08/29 07:59:33;;;;;;;3.53;2.22;;;18.20;94.00;;;;;;5063099;28;20175;-36
2022/08/29 08:01:59;;;;;;;3.85;2.40;;;18.20;93.90;;;;;;5063357;28;20452;-37
2022/08/29 08:04:24;;;;;;;2.50;1.90;;;18.30;93.80;;;;;;5064318;28;20031;-36
2022/08/29 08:06:50;;;;;;;2.65;1.90;;;18.40;93.80;;;;;;5064358;28;20024;-35
2022/08/29 08:09:16;;;;;;;2.42;1.92;;;18.50;93.70;;;;;;5064159;28;20020;-36
2022/08/29 08:11:42;;;;;;;3.58;2.08;;;18.60;93.70;;;;;;5063746;28;20491;-35
2022/08/29 08:14:08;;;;;;;4.97;2.13;;;18.70;93.50;;;;;;5063520;28;20024;-37
2022/08/29 08:16:34;;;;;;;3.33;2.25;;;18.80;93.40;;;;;;5063475;28;20415;-36
2022/08/29 08:18:59;;;;;;;3.33;2.10;;;18.90;93.20;;;;;;5064883;28;20016;-37
2022/08/29 08:21:26;;;;;;;5.80;2.30;;;18.90;93.20;;;;;;5063641;28;20484;-38
2022/08/29 08:23:52;;;;;;;4.85;2.30;;;19.00;93.10;;;;;;5063257;28;20525;-37
2022/08/29 08:26:18;;;;;;;3.40;2.40;;;19.10;93.10;;;;;;5064019;28;20504;-35
2022/08/29 08:28:44;;;;;;;4.07;2.50;;;19.20;93.00;;;;;;5063525;28;20184;-36
2022/08/29 08:31:11;;;;;;;5.32;2.50;;;19.30;92.90;;;;;;5063549;28;20017;-36
2022/08/29 08:33:38;;;;;;;3.83;2.22;;;19.30;92.80;;;;;;5063424;28;20149;-36
2022/08/29 08:36:19;;;;;;;3.78;2.40;;;19.30;92.50;;;;;;5062727;28;20047;-36
2022/08/29 08:38:45;;;;;;;3.97;2.08;;;19.30;92.50;;;;;;5063291;28;20033;-37
2022/08/29 08:41:32;;;;;;;3.63;2.40;;;19.30;92.50;;;;;;5064233;28;20071;-36
2022/08/29 08:44:06;;;;;;;3.30;2.03;;;19.40;92.20;;;;;;5063224;28;20146;-35
2022/08/29 08:46:35;;;;;;;4.20;2.00;;;19.30;92.30;;;;;;5061133;28;20016;-37
2022/08/29 08:49:05;;;;;;;3.85;2.22;;;19.40;92.40;;;;;;5063810;28;20119;-35
2022/08/29 08:51:34;;;;;;;3.50;1.95;;;19.50;92.40;;;;;;5062854;28;20392;-37
2022/08/29 08:54:03;;;;;;;3.22;2.08;;;19.50;92.20;;;;;;5063704;28;20049;-36
2022/08/29 08:56:40;;;;;;;3.05;2.50;;;19.60;92.20;;;;;;5063828;28;20040;-35
2022/08/29 08:59:23;;;;;;;3.22;2.13;;;19.70;92.10;;;;;;5063841;28;20025;-36
2022/08/29 09:02:18;;;;;;;3.30;2.33;;;19.80;91.80;;;;;;5063190;28;20043;-37
2022/08/29 09:05:21;;;;;;;3.47;2.40;;;19.90;91.60;;;;;;5064523;28;20498;-35
2022/08/29 09:08:04;;;;;;;3.35;2.08;;;20.00;91.30;;;;;;5067239;28;20420;-36
2022/08/29 09:11:01;;;;;;;5.25;2.45;;;20.00;90.80;;;;;;5068434;28;20082;-35
2022/08/29 09:13:52;;;;;;;3.67;2.40;;;20.10;90.70;;;;;;5063704;28;20443;-35
2022/08/29 09:16:36;;;;;;;3.40;2.20;;;20.20;90.60;;;;;;5067718;28;20033;-35
2022/08/29 09:19:05;;;;;;;2.58;2.10;;;20.30;90.50;;;;;;5067047;28;20017;-35
2022/08/29 09:21:38;;;;;;;4.28;2.13;;;20.40;90.40;;;;;;5067398;28;20031;-34
2022/08/29 09:24:07;;;;;;;3.50;2.33;;;20.40;90.10;;;;;;5067235;28;20025;-35
2022/08/29 09:26:33;;;;;;;3.40;2.38;;;20.50;90.10;;;;;;5066271;28;20708;-35
2022/08/29 09:28:59;;;;;;;3.30;1.98;;;20.50;89.60;;;;;;5067369;28;20108;-34
2022/08/29 09:31:32;;;;;;;3.15;1.95;;;20.50;89.80;;;;;;5067112;28;20108;-35
2022/08/29 09:34:05;;;;;;;3.30;2.08;;;20.60;89.80;;;;;;5065519;28;20021;-37
2022/08/29 09:36:47;;;;;;;4.72;1.85;;;20.60;89.90;;;;;;5067507;28;20047;-37
2022/08/29 09:39:30;;;;;;;3.20;2.23;;;20.70;89.70;;;;;;5065065;28;20426;-34
2022/08/29 09:42:00;;;;;;;2.95;1.67;;;20.80;89.80;;;;;;5066570;28;20279;-36
2022/08/29 09:44:32;;;;;;;2.88;1.95;;;20.80;89.40;;;;;;5066731;28;20038;-39
2022/08/29 09:47:08;;;;;;;4.07;2.38;;;20.80;89.10;;;;;;5066075;28;20024;-38
2022/08/29 09:49:36;;;;;;;4.97;2.30;;;20.80;88.80;;;;;;5066054;28;20033;-37
2022/08/29 09:52:14;;;;;;;3.17;2.05;;;20.80;89.10;;;;;;5066935;28;20107;-36
2022/08/29 09:54:41;;;;;;;4.32;2.13;;;20.80;89.30;;;;;;5064257;28;20055;-37
2022/08/29 09:57:26;;;;;;;4.43;1.70;;;20.90;89.40;;;;;;5066397;28;20106;-35
2022/08/29 10:00:14;;;;;;;3.17;1.60;;;20.90;89.60;;;;;;5065581;28;20012;-36
2022/08/29 10:02:48;;;;;;;4.07;2.00;;;20.90;89.60;;;;;;5066300;28;20111;-35
2022/08/29 10:05:29;;;;;;;3.05;1.77;;;20.80;89.80;;;;;;5063365;28;20028;-35
2022/08/29 10:07:56;;;;;;;3.67;1.90;;;20.80;90.00;;;;;;5064852;28;20035;-36
2022/08/29 10:10:35;;;;;;;3.13;1.80;;;20.80;90.00;;;;;;5066106;28;20025;-35
2022/08/29 10:13:25;;;;;;;2.42;1.60;;;20.90;90.10;;;;;;5065911;28;20108;-35
2022/08/29 10:16:14;;;;;;;2.00;1.63;;;21.10;90.00;;;;;;5062992;28;20074;-36
2022/08/29 10:19:01;;;;;;;3.08;1.80;;;21.20;89.70;;;;;;5045035;28;20031;-37
2022/08/29 10:22:03;;;;;;;3.03;1.95;;;21.20;89.10;;;;;;5055847;28;20551;-36
2022/08/29 10:24:40;;;;;;;3.22;1.70;;;21.30;89.00;;;;;;5065351;28;20107;-36
2022/08/29 10:27:21;;;;;;;3.13;1.70;;;21.30;88.90;;;;;;5065248;28;20036;-35
2022/08/29 10:30:01;;;;;;;2.38;1.60;;;21.30;88.60;;;;;;5064210;28;20037;-36
2022/08/29 10:32:43;;;;;;;2.63;1.50;;;21.30;88.80;;;;;;5064868;28;20036;-35
2022/08/29 10:35:29;;;;;;;3.20;1.85;;;21.40;88.90;;;;;;5065353;28;20031;-36
2022/08/29 10:38:18;;;;;;;1.75;1.17;;;21.50;88.80;;;;;;5066109;28;20039;-37
2022/08/29 10:40:48;;;;;;;3.85;1.25;;;21.60;88.60;;;;;;5065340;28;20032;-37
2022/08/29 10:43:31;;;;;;;2.20;1.23;;;21.60;88.80;;;;;;5065332;28;20086;-37
2022/08/29 10:46:03;;;;;;;2.45;1.25;;;21.60;88.90;;;;;;5065639;28;20412;-36
2022/08/29 10:48:36;;;;;;;1.23;1.13;;;21.60;88.90;;;;;;5065978;28;20028;-36
2022/08/29 10:51:07;;;;;;;;;;;21.70;88.80;;;;;;5064866;28;20543;-36
2022/08/29 10:53:38;;;;;;;3.22;1.52;;;21.90;88.20;;;;;;5044940;28;19917;-36
2022/08/29 10:56:18;;;;;;;3.95;1.63;;;21.90;88.10;;;;;;5060583;28;20184;-35
2022/08/29 10:58:46;;;;;;;2.03;1.35;;;21.90;88.10;;;;;;5044380;28;20242;-34
2022/08/29 11:01:20;;;;;;;1.95;1.35;;;21.90;88.20;;;;;;5059777;28;20334;-35
2022/08/29 11:04:15;;;;;;;1.65;1.38;;;21.90;88.20;;;;;;5063592;28;20024;-36
2022/08/29 11:06:47;;;;;;;2.30;1.50;;;21.90;88.20;;;;;;5064496;28;20192;-36
2022/08/29 11:09:23;;;;;;;1.88;1.23;;;21.90;88.10;;;;;;5064839;28;20028;-36
2022/08/29 11:12:06;;;;;;;3.33;1.20;;;21.90;88.30;;;;;;5064021;28;20039;-35
2022/08/29 11:14:47;;;;;;;3.78;1.90;;;22.00;88.20;;;;;;5065121;28;20099;-36
2022/08/29 11:17:16;;;;;;;5.05;1.83;;;22.00;88.00;;;;;;5064397;28;20451;-36
2022/08/29 11:20:30;;;;;;;4.10;1.70;;;22.10;87.70;;;;;;5064245;28;20021;-35
2022/08/29 11:23:06;;;;;;;2.60;1.75;;;22.10;87.80;;;;;;5055608;28;20115;-36
2022/08/29 11:25:34;;;;;;;2.90;1.58;;;22.00;87.80;;;;;;5064168;28;20119;-37
2022/08/29 11:28:14;;;;;;;3.03;1.80;;;22.10;87.70;;;;;;5064827;28;20081;-35
2022/08/29 11:31:08;;;;;;;4.15;1.50;;;22.10;87.70;;;;;;5064949;28;20484;-36
2022/08/29 11:33:44;;;;;;;3.42;1.77;;;22.10;87.80;;;;;;5053591;28;20033;-37
2022/08/29 11:36:51;;;;;;;3.95;1.98;;;22.20;87.70;;;;;;5064821;28;20081;-37
2022/08/29 11:39:38;;;;;;;3.35;1.40;;;22.10;87.60;;;;;;5058291;28;20048;-35
2022/08/29 11:42:08;;;;;;;3.13;1.60;;;22.10;87.70;;;;;;5063136;28;20024;-37
2022/08/29 11:44:44;;;;;;;2.53;1.48;;;22.10;87.80;;;;;;5065133;28;20032;-36
2022/08/29 11:47:54;;;;;;;3.65;1.80;;;22.20;88.00;;;;;;5064197;28;20052;-37
2022/08/29 11:50:35;;;;;;;2.78;1.60;;;22.20;87.70;;;;;;5065403;28;20043;-37
2022/08/29 11:53:32;;;;;;;2.35;1.90;;;22.20;87.70;;;;;;5063362;28;20102;-37
2022/08/29 11:56:13;;;;;;;2.53;1.80;;;22.20;87.70;;;;;;5044227;28;20654;-37
2022/08/29 11:58:44;;;;;;;3.00;1.80;;;22.20;87.90;;;;;;5063506;28;20044;-36
2022/08/29 12:01:32;;;;;;;2.22;1.58;;;22.20;87.90;;;;;;5063801;28;20275;-39
2022/08/29 12:04:04;;;;;;;4.28;2.05;;;22.20;88.10;;;;;;5059063;28;20114;-37
2022/08/29 12:06:38;;;;;;;3.42;1.83;;;22.10;88.20;;;;;;5063565;28;20375;-39
2022/08/29 12:09:12;;;;;;;3.47;2.00;;;22.10;88.20;;;;;;5063151;28;20035;-39
2022/08/29 12:12:04;;;;;;;3.63;1.70;;;22.00;88.30;;;;;;5064080;28;20803;-36
2022/08/29 12:14:49;;;;;;;4.32;1.88;;;22.10;88.40;;;;;;5061303;28;20035;-35
2022/08/29 12:17:17;;;;;;;2.92;1.92;;;22.10;88.30;;;;;;5063851;28;20450;-36
2022/08/29 12:20:06;;;;;;;4.05;1.70;;;22.10;88.10;;;;;;5064128;28;20912;-35
2022/08/29 12:22:50;;;;;;;3.78;1.63;;;22.20;88.00;;;;;;5056908;28;20496;-37
2022/08/29 12:25:43;;;;;;;3.92;1.70;;;22.30;87.70;;;;;;5053666;28;20020;-36
2022/08/29 12:28:22;;;;;;;2.60;1.73;;;22.40;86.90;;;;;;5064009;28;20021;-38
2022/08/29 12:30:57;;;;;;;3.17;1.67;;;22.50;86.60;;;;;;5064273;28;20029;-36
2022/08/29 12:33:48;;;;;;;3.65;1.55;;;22.60;86.30;;;;;;5064276;28;20043;-34
2022/08/29 12:36:19;;;;;;;3.17;1.63;;;22.70;85.90;;;;;;5061995;28;20434;-36
2022/08/29 12:39:02;;;;;;;1.98;1.50;;;22.90;85.90;;;;;;5063146;28;20104;-35
2022/08/29 12:41:30;;;;;;;;;;;23.00;85.70;;;;;;5067721;28;20029;-37
2022/08/29 12:44:00;;;;;;;2.05;1.80;;;23.00;84.50;;;;;;5067324;28;19912;-37
2022/08/29 12:46:50;;;;;;;3.25;1.65;;;23.10;84.30;;;;;;5068057;28;20078;-36
2022/08/29 12:49:22;;;;;;;1.67;1.58;;;23.00;83.70;;;;;;5067530;28;20028;-36
2022/08/29 12:51:54;;;;;;;1.33;1.10;;;23.00;83.90;;;;;;5067625;28;20418;-36
2022/08/29 12:54:49;;;;;;;3.80;1.40;;;23.10;83.50;;;;;;5068012;28;20056;-43
2022/08/29 12:57:20;;;;;;;2.20;1.73;;;23.20;83.20;;;;;;5058244;28;20123;-37
2022/08/29 12:59:49;;;;;;;2.50;1.58;;;23.20;83.20;;;;;;5067276;28;20028;-36
2022/08/29 13:02:28;;;;;;;1.80;1.20;;;23.30;83.20;;;;;;5067514;28;20024;-35
2022/08/29 13:04:55;;;;;;;2.05;1.35;;;23.40;82.80;;;;;;5067039;28;20028;-37
2022/08/29 13:07:20;;;;;;;2.20;1.40;;;23.50;82.70;;;;;;5067513;28;20842;-37
2022/08/29 13:09:52;;;;;;;2.72;1.65;;;23.60;82.60;;;;;;5067310;28;20029;-37
2022/08/29 13:12:24;;;;;;;3.22;1.75;;;23.80;81.90;;;;;;5066902;28;20464;-37